createdAt,value
2022-12-22T00:01:54.833Z,17.98
2022-12-22T00:04:40.990Z,18.77
2022-12-22T00:07:26.353Z,18.73
2022-12-22T00:10:11.724Z,19.60
2022-12-22T00:12:57.068Z,18.65
2022-12-22T00:15:42.577Z,18.10
2022-12-22T00:18:34.105Z,18.20
2022-12-22T00:21:19.479Z,17.80
2022-12-22T00:24:04.373Z,17.77
2022-12-22T00:26:51.141Z,17.20
2022-12-22T00:29:36.607Z,17.15
2022-12-22T00:32:22.611Z,17.63
2022-12-22T00:35:08.008Z,16.48
2022-12-22T00:37:55.514Z,17.55
2022-12-22T00:40:45.605Z,17.27
2022-12-22T00:43:30.849Z,17.17
2022-12-22T00:46:17.338Z,17.00
2022-12-22T00:49:03.023Z,17.42
2022-12-22T00:51:49.836Z,17.67
2022-12-22T00:54:37.121Z,16.98
2022-12-22T00:57:22.703Z,17.08
2022-12-22T01:00:08.511Z,17.38
2022-12-22T01:02:54.227Z,16.65
2022-12-22T01:05:40.368Z,16.65
2022-12-22T01:08:29.196Z,17.13
2022-12-22T01:11:14.677Z,16.27
2022-12-22T01:13:59.783Z,15.95
2022-12-22T01:16:44.938Z,17.40
2022-12-22T01:19:30.401Z,17.17
2022-12-22T01:22:16.297Z,16.85
2022-12-22T01:25:02.776Z,16.58
2022-12-22T01:27:47.609Z,16.88
2022-12-22T01:30:33.110Z,16.83
2022-12-22T01:33:18.407Z,16.80
2022-12-22T01:36:03.232Z,16.85
2022-12-22T01:38:48.258Z,16.55
2022-12-22T01:41:38.742Z,17.00
2022-12-22T01:44:32.847Z,16.08
2022-12-22T01:47:44.137Z,17.05
2022-12-22T01:50:29.410Z,16.40
2022-12-22T01:53:19.788Z,16.33
2022-12-22T01:56:06.222Z,15.20
2022-12-22T01:58:55.401Z,16.88
2022-12-22T02:01:40.756Z,15.85
2022-12-22T02:04:25.915Z,16.63
2022-12-22T02:07:15.322Z,17.63
2022-12-22T02:10:28.922Z,17.33
2022-12-22T02:13:35.353Z,17.40
2022-12-22T02:16:33.581Z,16.77
2022-12-22T02:19:41.259Z,17.60
2022-12-22T02:22:52.904Z,16.30
2022-12-22T02:25:46.303Z,17.20
2022-12-22T02:28:32.982Z,16.10
2022-12-22T02:31:18.108Z,16.40
2022-12-22T02:34:03.374Z,15.82
2022-12-22T02:37:28.801Z,16.58
2022-12-22T02:40:41.405Z,15.00
2022-12-22T02:43:47.488Z,15.05
2022-12-22T02:46:51.086Z,16.27
2022-12-22T02:49:57.810Z,17.42
2022-12-22T02:52:53.364Z,16.90
2022-12-22T02:55:39.805Z,16.60
2022-12-22T02:58:25.448Z,16.02
2022-12-22T03:01:10.764Z,16.55
2022-12-22T03:03:56.315Z,16.30
2022-12-22T03:06:41.338Z,15.70
2022-12-22T03:09:26.150Z,15.85
2022-12-22T03:12:10.887Z,17.20
2022-12-22T03:14:56.194Z,17.80
2022-12-22T03:17:41.481Z,17.77
2022-12-22T03:20:27.419Z,17.08
2022-12-22T03:23:12.335Z,16.77
2022-12-22T03:25:52.026Z,16.80
2022-12-22T03:28:18.769Z,14.63
2022-12-22T03:30:45.264Z,17.17
2022-12-22T03:33:11.805Z,17.08
2022-12-22T03:35:38.312Z,17.30
2022-12-22T03:38:04.797Z,16.67
2022-12-22T03:40:32.231Z,17.40
2022-12-22T03:43:30.721Z,16.60
2022-12-22T03:46:16.159Z,17.27
2022-12-22T03:48:43.599Z,16.92
2022-12-22T03:51:10.912Z,16.33
2022-12-22T03:53:37.488Z,16.30
2022-12-22T03:56:07.993Z,15.38
2022-12-22T03:58:34.872Z,15.43
2022-12-22T04:01:06.485Z,16.73
2022-12-22T04:03:33.236Z,15.65
2022-12-22T04:06:00.132Z,16.25
2022-12-22T04:08:26.675Z,16.08
2022-12-22T04:11:11.769Z,16.00
2022-12-22T04:13:38.269Z,15.98
2022-12-22T04:16:04.992Z,16.40
2022-12-22T04:18:31.586Z,16.35
2022-12-22T04:20:58.090Z,17.58
2022-12-22T04:23:24.646Z,17.35
2022-12-22T04:25:51.128Z,18.60
2022-12-22T04:28:17.693Z,18.70
2022-12-22T04:30:44.245Z,17.98
2022-12-22T04:33:10.801Z,18.02
2022-12-22T04:35:37.335Z,18.27
2022-12-22T04:38:03.880Z,18.50
2022-12-22T04:40:30.455Z,17.70
2022-12-22T04:42:57.001Z,18.00
2022-12-22T04:45:23.560Z,17.02
2022-12-22T04:47:50.063Z,17.10
2022-12-22T04:50:16.874Z,17.95
2022-12-22T04:52:43.442Z,16.83
2022-12-22T04:55:10.001Z,17.23
2022-12-22T04:57:40.575Z,19.42
2022-12-22T05:00:09.298Z,18.70
2022-12-22T05:02:36.044Z,16.80
2022-12-22T05:05:02.716Z,16.50
2022-12-22T05:07:29.220Z,17.60
2022-12-22T05:09:55.757Z,15.95
2022-12-22T05:12:41.147Z,15.43
2022-12-22T05:15:08.155Z,16.17
2022-12-22T05:17:34.694Z,18.25
2022-12-22T05:20:01.155Z,18.15
2022-12-22T05:22:27.715Z,21.13
2022-12-22T05:24:54.195Z,21.35
2022-12-22T05:27:20.720Z,20.52
2022-12-22T05:29:47.309Z,20.85
2022-12-22T05:32:13.930Z,21.20
2022-12-22T05:34:40.483Z,20.38
2022-12-22T05:37:06.985Z,21.25
2022-12-22T05:39:33.517Z,21.10
2022-12-22T05:42:00.106Z,26.08
2022-12-22T05:44:26.639Z,24.15
2022-12-22T05:46:53.249Z,23.65
2022-12-22T05:49:20.247Z,21.95
2022-12-22T05:51:47.238Z,22.60
2022-12-22T05:54:13.867Z,21.77
2022-12-22T05:56:40.405Z,22.42
2022-12-22T05:59:06.939Z,25.50
2022-12-22T06:01:33.537Z,24.40
2022-12-22T06:04:00.865Z,23.75
2022-12-22T06:06:27.709Z,23.00
2022-12-22T06:08:54.265Z,22.08
2022-12-22T06:11:20.825Z,21.83
2022-12-22T06:13:47.287Z,22.50
2022-12-22T06:16:13.937Z,22.55
2022-12-22T06:18:40.487Z,22.38
2022-12-22T06:21:07.100Z,24.02
2022-12-22T06:23:33.633Z,22.30
2022-12-22T06:26:01.764Z,24.15
2022-12-22T06:28:28.905Z,24.00
2022-12-22T06:30:55.595Z,23.73
2022-12-22T06:33:22.295Z,25.52
2022-12-22T06:35:53.940Z,25.10
2022-12-22T06:38:25.044Z,27.27
2022-12-22T06:40:51.561Z,28.17
2022-12-22T06:43:19.022Z,29.45
2022-12-22T06:45:45.797Z,30.23
2022-12-22T06:48:13.269Z,30.85
2022-12-22T06:50:40.176Z,30.00
2022-12-22T06:53:08.294Z,30.75
2022-12-22T06:55:34.862Z,31.05
2022-12-22T06:58:02.022Z,33.17
2022-12-22T07:00:28.621Z,33.55
2022-12-22T07:02:55.311Z,34.30
2022-12-22T07:05:23.698Z,35.05
2022-12-22T07:07:50.691Z,35.17
2022-12-22T07:10:17.227Z,35.33
2022-12-22T07:12:43.755Z,36.08
2022-12-22T07:15:10.717Z,35.65
2022-12-22T07:17:37.351Z,35.97
2022-12-22T07:20:04.172Z,37.05
2022-12-22T07:22:31.312Z,36.05
2022-12-22T07:24:59.265Z,35.00
2022-12-22T07:27:25.808Z,36.75
2022-12-22T07:29:52.323Z,37.03
2022-12-22T07:32:18.811Z,36.35
2022-12-22T07:34:45.333Z,35.53
2022-12-22T07:37:13.544Z,35.60
2022-12-22T07:39:40.101Z,36.25
2022-12-22T07:42:25.169Z,36.60
2022-12-22T07:44:51.689Z,35.65
2022-12-22T07:47:18.278Z,35.60
2022-12-22T07:50:03.107Z,35.05
2022-12-22T07:52:29.710Z,35.05
2022-12-22T07:54:56.257Z,30.60
2022-12-22T07:57:22.823Z,30.58
2022-12-22T07:59:49.353Z,29.40
2022-12-22T08:02:16.027Z,30.63
2022-12-22T08:04:42.726Z,30.25
2022-12-22T08:07:09.273Z,30.10
2022-12-22T08:09:35.836Z,30.48
2022-12-22T08:12:02.359Z,28.40
2022-12-22T08:14:28.924Z,27.02
2022-12-22T08:16:55.535Z,27.15
2022-12-22T08:19:22.160Z,25.98
2022-12-22T08:21:52.843Z,26.17
2022-12-22T08:24:20.270Z,25.88
2022-12-22T08:26:51.167Z,26.58
2022-12-22T08:29:26.916Z,27.42
2022-12-22T08:31:54.489Z,27.85
2022-12-22T08:34:21.201Z,26.60
2022-12-22T08:36:51.133Z,27.35
2022-12-22T08:39:20.115Z,26.90
2022-12-22T08:41:53.290Z,27.27
2022-12-22T08:44:23.725Z,27.55
2022-12-22T08:46:51.916Z,27.17
2022-12-22T08:49:19.183Z,27.08
2022-12-22T08:51:46.472Z,26.85
2022-12-22T08:54:13.395Z,25.80
2022-12-22T08:56:40.073Z,27.05
2022-12-22T08:59:08.075Z,26.95
2022-12-22T09:01:36.974Z,25.85
2022-12-22T09:04:04.734Z,25.77
2022-12-22T09:06:38.527Z,25.63
2022-12-22T09:09:09.691Z,25.50
2022-12-22T09:11:36.450Z,25.52
2022-12-22T09:14:03.673Z,25.40
2022-12-22T09:16:32.536Z,27.30
2022-12-22T09:18:59.719Z,25.83
2022-12-22T09:21:26.318Z,26.67
2022-12-22T09:23:53.836Z,26.70
2022-12-22T09:26:22.371Z,26.38
2022-12-22T09:28:50.802Z,27.13
2022-12-22T09:31:18.632Z,27.67
2022-12-22T09:33:45.236Z,28.33
2022-12-22T09:36:17.207Z,29.48
2022-12-22T09:38:44.202Z,28.73
2022-12-22T09:41:50.842Z,28.45
2022-12-22T09:44:37.700Z,29.17
2022-12-22T09:47:16.445Z,29.35
2022-12-22T09:49:42.948Z,27.55
2022-12-22T09:52:40.616Z,28.27
2022-12-22T09:55:25.197Z,27.85
2022-12-22T09:57:53.557Z,27.52
2022-12-22T10:00:23.869Z,29.10
2022-12-22T10:03:15.164Z,28.50
2022-12-22T10:05:52.824Z,29.00
2022-12-22T10:08:27.525Z,28.35
2022-12-22T10:10:56.175Z,27.98
2022-12-22T10:13:22.942Z,27.58
2022-12-22T10:15:50.045Z,28.65
2022-12-22T10:18:20.286Z,28.75
2022-12-22T10:21:06.123Z,29.58
2022-12-22T10:23:38.575Z,28.27
2022-12-22T10:26:30.120Z,29.48
2022-12-22T10:29:07.330Z,27.33
2022-12-22T10:31:36.226Z,26.95
2022-12-22T10:34:14.021Z,25.58
2022-12-22T10:36:46.236Z,25.15
2022-12-22T10:39:24.178Z,22.20
2022-12-22T10:41:55.032Z,20.63
2022-12-22T10:44:26.249Z,18.02
2022-12-22T10:46:56.183Z,17.60
2022-12-22T10:52:32.248Z,17.27
2022-12-22T10:55:22.087Z,19.02
2022-12-22T10:57:50.390Z,19.58
2022-12-22T11:00:23.227Z,20.80
2022-12-22T11:02:55.216Z,18.30
2022-12-22T11:05:21.962Z,15.77
2022-12-22T11:07:48.705Z,15.63
2022-12-22T11:10:19.588Z,16.92
2022-12-22T11:12:54.805Z,16.52
2022-12-22T11:15:49.402Z,16.52
2022-12-22T11:18:24.593Z,16.33
2022-12-22T11:21:03.285Z,16.35
2022-12-22T11:23:43.139Z,16.98
2022-12-22T11:26:18.825Z,16.73
2022-12-22T11:28:55.169Z,16.48
2022-12-22T11:31:55.837Z,15.80
2022-12-22T11:34:55.679Z,15.23
2022-12-22T11:37:44.121Z,16.17
2022-12-22T11:40:28.936Z,15.15
2022-12-22T11:43:10.788Z,16.65
2022-12-22T11:45:59.514Z,18.90
2022-12-22T11:48:49.674Z,18.48
2022-12-22T11:52:00.217Z,20.35
2022-12-22T11:54:58.626Z,23.95
2022-12-22T11:57:56.461Z,26.45
2022-12-22T12:00:32.628Z,26.73
2022-12-22T12:03:38.077Z,28.58
2022-12-22T12:06:15.027Z,29.85
2022-12-22T12:09:10.887Z,30.92
2022-12-22T12:11:52.411Z,30.58
2022-12-22T12:14:34.542Z,27.92
2022-12-22T12:20:00.741Z,26.13
2022-12-22T12:22:50.931Z,25.60
2022-12-22T12:25:38.797Z,25.95
2022-12-22T12:28:19.478Z,25.08
2022-12-22T12:30:54.079Z,23.85
2022-12-22T12:33:38.532Z,23.38
2022-12-22T12:36:07.913Z,24.05
2022-12-22T12:39:08.355Z,21.88
2022-12-22T12:42:09.573Z,22.08
2022-12-22T12:44:37.305Z,21.27
2022-12-22T12:47:23.679Z,21.80
2022-12-22T12:49:54.706Z,20.08
2022-12-22T12:52:39.599Z,21.07
2022-12-22T12:55:32.594Z,20.15
2022-12-22T12:58:03.262Z,21.38
2022-12-22T13:00:33.144Z,21.25
2022-12-22T13:06:49.741Z,21.23
2022-12-22T13:12:48.694Z,21.67
2022-12-22T13:15:27.501Z,21.70
2022-12-22T13:17:54.155Z,21.83
2022-12-22T13:20:35.708Z,21.75
2022-12-22T13:23:10.284Z,22.27
2022-12-22T13:25:42.743Z,21.85
2022-12-22T13:28:16.205Z,20.75
2022-12-22T13:30:57.834Z,22.35
2022-12-22T13:33:27.038Z,21.75
2022-12-22T13:35:58.805Z,21.52
2022-12-22T13:38:32.057Z,22.65
2022-12-22T13:41:02.617Z,21.75
2022-12-22T13:43:32.219Z,22.00
2022-12-22T13:46:02.572Z,22.17
2022-12-22T13:48:44.620Z,23.10
2022-12-22T13:51:18.902Z,22.48
2022-12-22T13:54:07.866Z,21.92
2022-12-22T13:56:39.875Z,23.70
2022-12-22T13:59:20.093Z,23.48
2022-12-22T14:01:51.483Z,23.25
2022-12-22T14:04:18.324Z,23.90
2022-12-22T14:06:44.972Z,23.23
2022-12-22T14:09:27.633Z,20.40
2022-12-22T14:12:00.358Z,19.27
2022-12-22T14:14:34.913Z,17.63
2022-12-22T14:17:02.576Z,18.55
2022-12-22T14:19:35.244Z,15.88
2022-12-22T14:22:11.142Z,15.45
2022-12-22T14:24:44.479Z,14.95
2022-12-22T14:27:37.209Z,14.70
2022-12-22T14:30:25.964Z,14.95
2022-12-22T14:32:56.533Z,14.18
2022-12-22T14:35:27.216Z,14.40
2022-12-22T14:37:55.323Z,15.02
2022-12-22T14:40:36.070Z,13.82
2022-12-22T14:43:05.631Z,14.00
2022-12-22T14:45:33.229Z,14.52
2022-12-22T14:47:59.818Z,14.80
2022-12-22T14:50:29.057Z,14.13
2022-12-22T14:53:04.995Z,14.25
2022-12-22T14:55:39.569Z,14.60
2022-12-22T14:58:08.934Z,15.05
2022-12-22T15:00:41.416Z,15.25
2022-12-22T15:03:37.055Z,15.48
2022-12-22T15:06:28.608Z,15.57
2022-12-22T15:09:13.302Z,15.68
2022-12-22T15:11:46.056Z,14.65
2022-12-22T15:14:17.428Z,14.45
2022-12-22T15:16:45.284Z,15.05
2022-12-22T15:19:17.950Z,14.10
2022-12-22T15:21:44.567Z,14.45
2022-12-22T15:24:16.501Z,14.75
2022-12-22T15:26:44.392Z,14.38
2022-12-22T15:29:11.503Z,13.90
2022-12-22T15:31:40.303Z,14.68
2022-12-22T15:34:31.761Z,14.90
2022-12-22T15:36:58.346Z,15.63
2022-12-22T15:39:24.907Z,15.43
2022-12-22T15:41:51.457Z,15.13
2022-12-22T15:44:18.348Z,15.88
2022-12-22T15:46:54.175Z,16.63
2022-12-22T15:49:23.576Z,16.80
2022-12-22T15:51:53.988Z,16.70
2022-12-22T15:54:21.604Z,16.75
2022-12-22T15:56:52.356Z,16.08
2022-12-22T15:59:23.772Z,15.63
2022-12-22T16:01:56.595Z,15.93
2022-12-22T16:04:28.227Z,16.60
2022-12-22T16:06:54.826Z,17.88
2022-12-22T16:09:25.149Z,17.10
2022-12-22T16:11:51.797Z,15.63
2022-12-22T16:14:20.449Z,15.82
2022-12-22T16:16:48.377Z,15.88
2022-12-22T16:19:17.133Z,16.27
2022-12-22T16:21:47.242Z,15.57
2022-12-22T16:24:35.781Z,16.25
2022-12-22T16:27:03.037Z,16.55
2022-12-22T16:29:30.050Z,16.17
2022-12-22T16:32:32.173Z,16.10
2022-12-22T16:35:20.405Z,16.00
2022-12-22T16:37:48.949Z,16.00
2022-12-22T16:40:17.749Z,16.73
2022-12-22T16:45:45.168Z,17.23
2022-12-22T16:48:34.159Z,15.68
2022-12-22T16:51:00.906Z,15.50
2022-12-22T16:53:29.009Z,16.05
2022-12-22T16:55:55.976Z,16.13
2022-12-22T16:58:22.542Z,15.88
2022-12-22T17:00:49.061Z,15.27
2022-12-22T17:03:20.708Z,15.30
2022-12-22T17:05:50.500Z,15.52
2022-12-22T17:08:25.140Z,15.10
2022-12-22T17:10:53.024Z,15.20
2022-12-22T17:13:20.731Z,15.68
2022-12-22T17:15:47.540Z,15.98
2022-12-22T17:18:16.832Z,15.93
2022-12-22T17:20:45.363Z,15.25
2022-12-22T17:23:24.074Z,15.93
2022-12-22T17:25:50.568Z,16.13
2022-12-22T17:28:17.234Z,16.45
2022-12-22T17:30:43.770Z,15.50
2022-12-22T17:33:16.041Z,21.13
2022-12-22T17:35:44.584Z,16.85
2022-12-22T17:38:19.570Z,16.90
2022-12-22T17:40:48.051Z,15.05
2022-12-22T17:43:19.697Z,15.40
2022-12-22T17:45:47.317Z,16.10
2022-12-22T17:48:15.884Z,16.48
2022-12-22T17:50:49.949Z,16.23
2022-12-22T17:53:20.869Z,16.67
2022-12-22T17:58:35.244Z,16.08
2022-12-22T18:01:01.895Z,16.70
2022-12-22T18:03:28.500Z,16.60
2022-12-22T18:05:55.431Z,15.90
2022-12-22T18:08:22.253Z,16.10
2022-12-22T18:10:49.406Z,15.48
2022-12-22T18:13:25.771Z,15.95
2022-12-22T18:15:53.190Z,16.70
2022-12-22T18:18:20.871Z,16.23
2022-12-22T18:21:07.672Z,17.05
2022-12-22T18:23:36.954Z,14.68
2022-12-22T18:26:05.974Z,14.63
2022-12-22T18:28:32.534Z,14.15
2022-12-22T18:30:59.293Z,15.05
2022-12-22T18:33:25.816Z,14.65
2022-12-22T18:35:52.431Z,15.00
2022-12-22T18:38:27.224Z,15.32
2022-12-22T18:40:53.957Z,15.98
2022-12-22T18:43:20.538Z,17.20
2022-12-22T18:45:47.221Z,16.48
2022-12-22T18:48:13.717Z,15.40
2022-12-22T18:50:41.194Z,15.45
2022-12-22T18:53:22.960Z,17.50
2022-12-22T18:55:49.587Z,18.52
2022-12-22T18:58:16.174Z,18.80
2022-12-22T19:00:43.488Z,18.23
2022-12-22T19:03:20.117Z,18.65
2022-12-22T19:05:47.707Z,18.60
2022-12-22T19:08:16.482Z,16.98
2022-12-22T19:10:46.681Z,17.42
2022-12-22T19:13:27.711Z,17.27
2022-12-22T19:15:54.964Z,17.07
2022-12-22T19:18:27.091Z,15.27
2022-12-22T19:20:55.517Z,15.98
2022-12-22T19:23:24.005Z,15.50
2022-12-22T19:25:56.291Z,16.02
2022-12-22T19:28:28.271Z,14.20
2022-12-22T19:30:55.889Z,14.40
2022-12-22T19:33:37.493Z,14.48
2022-12-22T19:36:05.455Z,13.20
2022-12-22T19:38:35.367Z,12.85
2022-12-22T19:41:04.275Z,13.00
2022-12-22T19:43:31.075Z,13.93
2022-12-22T19:45:57.762Z,14.68
2022-12-22T19:48:26.530Z,14.90
2022-12-22T19:50:54.013Z,15.55
2022-12-22T19:53:20.977Z,15.23
2022-12-22T19:55:56.442Z,15.10
2022-12-22T19:58:31.331Z,16.00
2022-12-22T20:00:58.708Z,16.00
2022-12-22T20:03:26.208Z,16.52
2022-12-22T20:05:52.817Z,16.17
2022-12-22T20:08:19.489Z,16.75
2022-12-22T20:10:46.393Z,15.65
2022-12-22T20:13:19.244Z,16.88
2022-12-22T20:15:45.970Z,15.23
2022-12-22T20:18:24.759Z,15.52
2022-12-22T20:21:03.466Z,15.23
2022-12-22T20:23:33.655Z,15.30
2022-12-22T20:26:03.992Z,14.82
2022-12-22T20:28:33.950Z,14.27
2022-12-22T20:31:02.543Z,14.45
2022-12-22T20:33:29.595Z,14.88
2022-12-22T20:35:57.996Z,14.30
2022-12-22T20:38:33.149Z,14.13
2022-12-22T20:41:00.422Z,15.25
2022-12-22T20:43:28.900Z,14.68
2022-12-22T20:46:00.289Z,14.43
2022-12-22T20:48:39.258Z,15.30
2022-12-22T20:51:10.221Z,14.27
2022-12-22T20:53:36.949Z,14.10
2022-12-22T20:56:03.685Z,14.30
2022-12-22T20:58:35.075Z,14.18
2022-12-22T21:01:02.281Z,13.68
2022-12-22T21:03:29.071Z,13.90
2022-12-22T21:05:55.688Z,13.20
2022-12-22T21:08:26.739Z,13.68
2022-12-22T21:10:54.949Z,13.35
2022-12-22T21:13:21.846Z,12.10
2022-12-22T21:15:51.910Z,11.98
2022-12-22T21:18:23.675Z,12.57
2022-12-22T21:20:51.336Z,12.93
2022-12-22T21:23:17.953Z,12.30
2022-12-22T21:25:48.289Z,11.98
2022-12-22T21:28:27.053Z,12.05
2022-12-22T21:30:53.612Z,12.30
2022-12-22T21:33:20.249Z,12.27
2022-12-22T21:35:46.771Z,12.98
2022-12-22T21:38:18.682Z,12.93
2022-12-22T21:43:15.837Z,11.80
2022-12-22T21:45:44.118Z,11.98
2022-12-22T21:48:18.576Z,12.25
2022-12-22T21:50:47.118Z,12.65
2022-12-22T21:53:19.823Z,12.52
2022-12-22T21:55:49.065Z,12.43
2022-12-22T21:58:15.675Z,11.68
2022-12-22T22:00:47.024Z,12.88
2022-12-22T22:03:14.767Z,12.48
2022-12-22T22:05:42.373Z,12.15
2022-12-22T22:08:11.272Z,12.48
2022-12-22T22:10:40.516Z,12.77
2022-12-22T22:13:07.294Z,12.70
2022-12-22T22:15:34.654Z,12.23
2022-12-22T22:18:06.851Z,13.85
2022-12-22T22:20:34.109Z,13.52
2022-12-22T22:23:00.846Z,13.70
2022-12-22T22:25:27.855Z,12.98
2022-12-22T22:27:59.381Z,14.23
2022-12-22T22:30:26.079Z,13.32
2022-12-22T22:32:54.063Z,13.80
2022-12-22T22:35:21.893Z,14.48
2022-12-22T22:37:52.133Z,14.32
2022-12-22T22:40:21.516Z,14.75
2022-12-22T22:42:48.618Z,15.65
2022-12-22T22:45:23.015Z,14.82
2022-12-22T22:47:51.134Z,15.90
2022-12-22T22:50:19.054Z,16.70
2022-12-22T22:52:46.221Z,16.65
2022-12-22T22:55:14.176Z,16.25
2022-12-22T22:57:42.190Z,16.13
2022-12-22T23:00:11.664Z,17.25
2022-12-22T23:02:38.753Z,17.95
2022-12-22T23:05:05.781Z,18.08
2022-12-22T23:07:32.450Z,18.90
2022-12-22T23:09:58.942Z,19.23
2022-12-22T23:12:25.648Z,19.67
2022-12-22T23:14:52.220Z,19.25
2022-12-22T23:17:19.204Z,19.23
2022-12-22T23:19:45.728Z,19.17
2022-12-22T23:22:12.632Z,20.95
2022-12-22T23:24:39.150Z,20.50
2022-12-22T23:27:05.772Z,21.75
2022-12-22T23:29:32.305Z,21.80
2022-12-22T23:31:58.897Z,21.60
2022-12-22T23:34:25.508Z,22.08
2022-12-22T23:36:52.017Z,23.45
2022-12-22T23:39:18.574Z,23.08
2022-12-22T23:41:45.183Z,24.25
2022-12-22T23:44:11.819Z,23.08
2022-12-22T23:46:38.344Z,22.75
2022-12-22T23:49:04.842Z,23.20
2022-12-22T23:51:31.559Z,22.40
2022-12-22T23:54:00.872Z,22.60
2022-12-22T23:56:29.479Z,22.88
2022-12-22T23:58:56.507Z,21.13
